sensor_id;sensor_type;location;lat;lon;timestamp;P1;durP1;ratioP1;P2;durP2;ratioP2
8592;SDS011;4334;49.982;8.398;2023-08-31T00:01:00;5.17;;;3.63;;
8592;SDS011;4334;49.982;8.398;2023-08-31T00:03:29;6.47;;;3.57;;
8592;SDS011;4334;49.982;8.398;2023-08-31T00:05:57;4.70;;;3.53;;
8592;SDS011;4334;49.982;8.398;2023-08-31T00:08:25;5.40;;;3.13;;
8592;SDS011;4334;49.982;8.398;2023-08-31T00:10:55;9.37;;;2.97;;
8592;SDS011;4334;49.982;8.398;2023-08-31T00:13:23;3.57;;;2.83;;
8592;SDS011;4334;49.982;8.398;2023-08-31T00:15:55;4.03;;;3.37;;
8592;SDS011;4334;49.982;8.398;2023-08-31T00:18:24;4.37;;;2.97;;
8592;SDS011;4334;49.982;8.398;2023-08-31T00:20:53;7.73;;;3.77;;
8592;SDS011;4334;49.982;8.398;2023-08-31T00:23:20;5.67;;;3.00;;
8592;SDS011;4334;49.982;8.398;2023-08-31T00:25:47;5.77;;;2.97;;
8592;SDS011;4334;49.982;8.398;2023-08-31T00:28:14;3.87;;;3.30;;
8592;SDS011;4334;49.982;8.398;2023-08-31T00:30:46;4.57;;;3.10;;
8592;SDS011;4334;49.982;8.398;2023-08-31T00:33:15;5.53;;;3.57;;
8592;SDS011;4334;49.982;8.398;2023-08-31T00:35:42;5.30;;;3.60;;
8592;SDS011;4334;49.982;8.398;2023-08-31T00:38:10;4.93;;;3.43;;
8592;SDS011;4334;49.982;8.398;2023-08-31T00:40:38;4.27;;;3.10;;
8592;SDS011;4334;49.982;8.398;2023-08-31T00:43:10;5.13;;;3.17;;
8592;SDS011;4334;49.982;8.398;2023-08-31T00:45:39;6.67;;;3.70;;
8592;SDS011;4334;49.982;8.398;2023-08-31T00:48:06;5.17;;;3.77;;
8592;SDS011;4334;49.982;8.398;2023-08-31T00:50:35;4.20;;;3.80;;
8592;SDS011;4334;49.982;8.398;2023-08-31T00:53:02;8.00;;;4.20;;
8592;SDS011;4334;49.982;8.398;2023-08-31T00:55:29;5.70;;;4.17;;
8592;SDS011;4334;49.982;8.398;2023-08-31T00:57:57;7.07;;;4.33;;
8592;SDS011;4334;49.982;8.398;2023-08-31T01:00:26;5.53;;;4.07;;
8592;SDS011;4334;49.982;8.398;2023-08-31T01:03:01;4.50;;;3.73;;
8592;SDS011;4334;49.982;8.398;2023-08-31T01:05:33;8.80;;;4.03;;
8592;SDS011;4334;49.982;8.398;2023-08-31T01:08:14;7.80;;;3.90;;
8592;SDS011;4334;49.982;8.398;2023-08-31T01:10:50;5.10;;;3.93;;
8592;SDS011;4334;49.982;8.398;2023-08-31T01:13:24;7.37;;;3.80;;
8592;SDS011;4334;49.982;8.398;2023-08-31T01:15:54;6.07;;;4.17;;
8592;SDS011;4334;49.982;8.398;2023-08-31T01:18:26;6.73;;;4.47;;
8592;SDS011;4334;49.982;8.398;2023-08-31T01:21:00;5.50;;;4.20;;
8592;SDS011;4334;49.982;8.398;2023-08-31T01:23:40;6.13;;;4.30;;
8592;SDS011;4334;49.982;8.398;2023-08-31T01:26:13;13.20;;;4.23;;
8592;SDS011;4334;49.982;8.398;2023-08-31T01:28:40;5.37;;;4.10;;
8592;SDS011;4334;49.982;8.398;2023-08-31T01:31:07;6.43;;;4.00;;
8592;SDS011;4334;49.982;8.398;2023-08-31T01:33:34;5.60;;;4.10;;
8592;SDS011;4334;49.982;8.398;2023-08-31T01:36:01;5.53;;;3.90;;
8592;SDS011;4334;49.982;8.398;2023-08-31T01:38:35;6.63;;;3.90;;
8592;SDS011;4334;49.982;8.398;2023-08-31T01:41:07;6.43;;;4.93;;
8592;SDS011;4334;49.982;8.398;2023-08-31T01:43:36;6.50;;;4.53;;
8592;SDS011;4334;49.982;8.398;2023-08-31T01:46:06;7.87;;;4.40;;
8592;SDS011;4334;49.982;8.398;2023-08-31T01:48:37;5.33;;;4.03;;
8592;SDS011;4334;49.982;8.398;2023-08-31T01:51:05;7.30;;;4.53;;
8592;SDS011;4334;49.982;8.398;2023-08-31T01:53:32;7.63;;;4.60;;
8592;SDS011;4334;49.982;8.398;2023-08-31T01:55:59;7.33;;;4.20;;
8592;SDS011;4334;49.982;8.398;2023-08-31T01:58:27;7.33;;;4.40;;
8592;SDS011;4334;49.982;8.398;2023-08-31T02:00:54;5.90;;;4.30;;
8592;SDS011;4334;49.982;8.398;2023-08-31T02:03:21;5.70;;;4.27;;
8592;SDS011;4334;49.982;8.398;2023-08-31T02:05:48;5.20;;;4.50;;
8592;SDS011;4334;49.982;8.398;2023-08-31T02:08:15;6.47;;;4.57;;
8592;SDS011;4334;49.982;8.398;2023-08-31T02:10:43;6.67;;;3.97;;
8592;SDS011;4334;49.982;8.398;2023-08-31T02:13:10;9.33;;;4.00;;
8592;SDS011;4334;49.982;8.398;2023-08-31T02:15:38;6.97;;;4.10;;
8592;SDS011;4334;49.982;8.398;2023-08-31T02:18:07;9.57;;;4.37;;
8592;SDS011;4334;49.982;8.398;2023-08-31T02:20:34;8.03;;;4.30;;
8592;SDS011;4334;49.982;8.398;2023-08-31T02:23:01;6.20;;;4.37;;
8592;SDS011;4334;49.982;8.398;2023-08-31T02:25:27;4.73;;;3.73;;
8592;SDS011;4334;49.982;8.398;2023-08-31T02:27:54;5.53;;;3.77;;
8592;SDS011;4334;49.982;8.398;2023-08-31T02:30:21;10.10;;;3.97;;
8592;SDS011;4334;49.982;8.398;2023-08-31T02:32:49;6.10;;;4.10;;
8592;SDS011;4334;49.982;8.398;2023-08-31T02:35:16;6.20;;;4.40;;
8592;SDS011;4334;49.982;8.398;2023-08-31T02:37:43;6.20;;;4.10;;
8592;SDS011;4334;49.982;8.398;2023-08-31T02:40:10;7.63;;;4.17;;
8592;SDS011;4334;49.982;8.398;2023-08-31T02:42:37;4.93;;;3.83;;
8592;SDS011;4334;49.982;8.398;2023-08-31T02:45:04;8.67;;;4.23;;
8592;SDS011;4334;49.982;8.398;2023-08-31T02:47:31;8.23;;;3.83;;
8592;SDS011;4334;49.982;8.398;2023-08-31T02:50:00;5.80;;;4.00;;
8592;SDS011;4334;49.982;8.398;2023-08-31T02:52:27;6.20;;;3.73;;
8592;SDS011;4334;49.982;8.398;2023-08-31T02:54:54;6.40;;;4.00;;
8592;SDS011;4334;49.982;8.398;2023-08-31T02:57:21;5.60;;;3.93;;
8592;SDS011;4334;49.982;8.398;2023-08-31T02:59:51;5.03;;;4.10;;
8592;SDS011;4334;49.982;8.398;2023-08-31T03:02:18;5.67;;;4.47;;
8592;SDS011;4334;49.982;8.398;2023-08-31T03:04:45;4.97;;;4.23;;
8592;SDS011;4334;49.982;8.398;2023-08-31T03:07:13;7.43;;;3.90;;
8592;SDS011;4334;49.982;8.398;2023-08-31T03:09:40;5.20;;;3.77;;
8592;SDS011;4334;49.982;8.398;2023-08-31T03:12:07;6.03;;;4.13;;
8592;SDS011;4334;49.982;8.398;2023-08-31T03:14:34;5.73;;;4.00;;
8592;SDS011;4334;49.982;8.398;2023-08-31T03:17:00;5.40;;;3.80;;
8592;SDS011;4334;49.982;8.398;2023-08-31T03:19:28;6.77;;;3.87;;
8592;SDS011;4334;49.982;8.398;2023-08-31T03:21:55;8.17;;;3.97;;
8592;SDS011;4334;49.982;8.398;2023-08-31T03:24:23;5.00;;;3.77;;
8592;SDS011;4334;49.982;8.398;2023-08-31T03:26:50;7.03;;;4.10;;
8592;SDS011;4334;49.982;8.398;2023-08-31T03:29:16;7.23;;;3.90;;
8592;SDS011;4334;49.982;8.398;2023-08-31T03:31:43;4.77;;;3.60;;
8592;SDS011;4334;49.982;8.398;2023-08-31T03:34:10;7.30;;;4.20;;
8592;SDS011;4334;49.982;8.398;2023-08-31T03:36:37;5.00;;;3.80;;
8592;SDS011;4334;49.982;8.398;2023-08-31T03:39:04;5.03;;;3.80;;
8592;SDS011;4334;49.982;8.398;2023-08-31T03:41:32;7.43;;;3.80;;
8592;SDS011;4334;49.982;8.398;2023-08-31T03:44:00;9.27;;;4.37;;
8592;SDS011;4334;49.982;8.398;2023-08-31T03:46:27;7.77;;;4.20;;
8592;SDS011;4334;49.982;8.398;2023-08-31T03:48:54;9.10;;;5.10;;
8592;SDS011;4334;49.982;8.398;2023-08-31T03:51:21;9.83;;;4.40;;
8592;SDS011;4334;49.982;8.398;2023-08-31T03:53:48;13.50;;;5.03;;
8592;SDS011;4334;49.982;8.398;2023-08-31T03:56:15;10.23;;;5.20;;
8592;SDS011;4334;49.982;8.398;2023-08-31T03:58:43;11.67;;;5.47;;
8592;SDS011;4334;49.982;8.398;2023-08-31T04:01:10;7.77;;;4.63;;
8592;SDS011;4334;49.982;8.398;2023-08-31T04:03:37;8.30;;;4.97;;
8592;SDS011;4334;49.982;8.398;2023-08-31T04:06:04;8.40;;;5.07;;
8592;SDS011;4334;49.982;8.398;2023-08-31T04:08:31;15.00;;;6.17;;
8592;SDS011;4334;49.982;8.398;2023-08-31T04:10:58;22.17;;;6.43;;
8592;SDS011;4334;49.982;8.398;2023-08-31T04:13:25;18.73;;;6.47;;
8592;SDS011;4334;49.982;8.398;2023-08-31T04:15:53;16.87;;;5.97;;
8592;SDS011;4334;49.982;8.398;2023-08-31T04:18:20;22.77;;;5.87;;
8592;SDS011;4334;49.982;8.398;2023-08-31T04:20:48;18.30;;;6.47;;
8592;SDS011;4334;49.982;8.398;2023-08-31T04:23:16;15.37;;;5.97;;
8592;SDS011;4334;49.982;8.398;2023-08-31T04:25:43;19.37;;;7.00;;
8592;SDS011;4334;49.982;8.398;2023-08-31T04:28:11;14.57;;;5.80;;
8592;SDS011;4334;49.982;8.398;2023-08-31T04:30:38;11.13;;;5.40;;
8592;SDS011;4334;49.982;8.398;2023-08-31T04:33:07;8.77;;;4.53;;
8592;SDS011;4334;49.982;8.398;2023-08-31T04:35:34;6.33;;;4.13;;
8592;SDS011;4334;49.982;8.398;2023-08-31T04:38:00;8.43;;;5.10;;
8592;SDS011;4334;49.982;8.398;2023-08-31T04:40:27;6.87;;;4.20;;
8592;SDS011;4334;49.982;8.398;2023-08-31T04:42:54;9.53;;;4.87;;
8592;SDS011;4334;49.982;8.398;2023-08-31T04:45:21;5.93;;;4.10;;
8592;SDS011;4334;49.982;8.398;2023-08-31T04:47:48;10.60;;;5.00;;
8592;SDS011;4334;49.982;8.398;2023-08-31T04:50:17;6.47;;;4.53;;
8592;SDS011;4334;49.982;8.398;2023-08-31T04:52:44;6.53;;;4.90;;
8592;SDS011;4334;49.982;8.398;2023-08-31T04:55:12;7.67;;;4.70;;
8592;SDS011;4334;49.982;8.398;2023-08-31T04:57:39;8.57;;;4.23;;
8592;SDS011;4334;49.982;8.398;2023-08-31T05:00:06;6.97;;;4.27;;
8592;SDS011;4334;49.982;8.398;2023-08-31T05:02:35;7.40;;;4.13;;
8592;SDS011;4334;49.982;8.398;2023-08-31T05:05:02;8.40;;;4.63;;
8592;SDS011;4334;49.982;8.398;2023-08-31T05:07:32;7.30;;;4.63;;
8592;SDS011;4334;49.982;8.398;2023-08-31T05:09:58;11.80;;;4.50;;
8592;SDS011;4334;49.982;8.398;2023-08-31T05:12:25;10.67;;;5.10;;
8592;SDS011;4334;49.982;8.398;2023-08-31T05:14:52;9.37;;;5.17;;
8592;SDS011;4334;49.982;8.398;2023-08-31T05:17:19;15.03;;;4.67;;
8592;SDS011;4334;49.982;8.398;2023-08-31T05:19:46;10.57;;;4.93;;
8592;SDS011;4334;49.982;8.398;2023-08-31T05:22:13;11.07;;;5.40;;
8592;SDS011;4334;49.982;8.398;2023-08-31T05:24:41;8.47;;;5.10;;
8592;SDS011;4334;49.982;8.398;2023-08-31T05:27:08;8.23;;;5.17;;
8592;SDS011;4334;49.982;8.398;2023-08-31T05:29:35;8.97;;;4.70;;
8592;SDS011;4334;49.982;8.398;2023-08-31T05:32:02;8.17;;;5.20;;
8592;SDS011;4334;49.982;8.398;2023-08-31T05:34:29;8.47;;;4.97;;
8592;SDS011;4334;49.982;8.398;2023-08-31T05:36:59;10.30;;;5.00;;
8592;SDS011;4334;49.982;8.398;2023-08-31T05:39:26;6.03;;;4.60;;
8592;SDS011;4334;49.982;8.398;2023-08-31T05:41:54;7.20;;;4.57;;
8592;SDS011;4334;49.982;8.398;2023-08-31T05:44:21;6.27;;;4.00;;
8592;SDS011;4334;49.982;8.398;2023-08-31T05:46:48;5.43;;;4.37;;
8592;SDS011;4334;49.982;8.398;2023-08-31T05:49:15;3.63;;;3.23;;
8592;SDS011;4334;49.982;8.398;2023-08-31T05:51:44;9.70;;;3.90;;
8592;SDS011;4334;49.982;8.398;2023-08-31T05:54:12;9.00;;;3.23;;
8592;SDS011;4334;49.982;8.398;2023-08-31T05:56:39;6.70;;;2.90;;
8592;SDS011;4334;49.982;8.398;2023-08-31T05:59:07;9.77;;;3.33;;
8592;SDS011;4334;49.982;8.398;2023-08-31T06:01:34;6.33;;;3.07;;
8592;SDS011;4334;49.982;8.398;2023-08-31T06:04:01;9.50;;;2.50;;
8592;SDS011;4334;49.982;8.398;2023-08-31T06:06:28;5.30;;;2.40;;
8592;SDS011;4334;49.982;8.398;2023-08-31T06:08:57;5.20;;;2.80;;
8592;SDS011;4334;49.982;8.398;2023-08-31T06:11:24;4.80;;;2.37;;
8592;SDS011;4334;49.982;8.398;2023-08-31T06:13:51;5.03;;;2.40;;
8592;SDS011;4334;49.982;8.398;2023-08-31T06:16:19;2.80;;;1.83;;
8592;SDS011;4334;49.982;8.398;2023-08-31T06:18:46;5.87;;;2.20;;
8592;SDS011;4334;49.982;8.398;2023-08-31T06:21:13;2.50;;;1.93;;
8592;SDS011;4334;49.982;8.398;2023-08-31T06:23:39;2.53;;;2.10;;
8592;SDS011;4334;49.982;8.398;2023-08-31T06:26:06;2.22;;;1.70;;
8592;SDS011;4334;49.982;8.398;2023-08-31T06:28:33;1.75;;;1.65;;
8592;SDS011;4334;49.982;8.398;2023-08-31T06:31:00;2.08;;;1.80;;
8592;SDS011;4334;49.982;8.398;2023-08-31T06:33:29;3.40;;;2.08;;
8592;SDS011;4334;49.982;8.398;2023-08-31T06:35:55;1.70;;;1.60;;
8592;SDS011;4334;49.982;8.398;2023-08-31T06:38:22;2.38;;;1.75;;
8592;SDS011;4334;49.982;8.398;2023-08-31T06:40:49;2.38;;;1.83;;
8592;SDS011;4334;49.982;8.398;2023-08-31T06:43:16;4.22;;;2.00;;
8592;SDS011;4334;49.982;8.398;2023-08-31T06:45:43;2.83;;;1.67;;
8592;SDS011;4334;49.982;8.398;2023-08-31T06:48:10;3.22;;;2.10;;
8592;SDS011;4334;49.982;8.398;2023-08-31T06:50:39;3.58;;;1.75;;
8592;SDS011;4334;49.982;8.398;2023-08-31T06:53:05;2.90;;;1.92;;
8592;SDS011;4334;49.982;8.398;2023-08-31T06:55:32;2.63;;;2.00;;
8592;SDS011;4334;49.982;8.398;2023-08-31T06:57:59;2.42;;;2.05;;
8592;SDS011;4334;49.982;8.398;2023-08-31T07:00:27;2.83;;;1.73;;
8592;SDS011;4334;49.982;8.398;2023-08-31T07:02:54;2.45;;;1.77;;
8592;SDS011;4334;49.982;8.398;2023-08-31T07:05:25;3.28;;;1.88;;
8592;SDS011;4334;49.982;8.398;2023-08-31T07:07:56;5.20;;;1.70;;
8592;SDS011;4334;49.982;8.398;2023-08-31T07:10:23;5.13;;;1.40;;
8592;SDS011;4334;49.982;8.398;2023-08-31T07:12:50;3.42;;;1.50;;
8592;SDS011;4334;49.982;8.398;2023-08-31T07:15:17;3.47;;;1.77;;
8592;SDS011;4334;49.982;8.398;2023-08-31T07:17:44;5.38;;;1.77;;
8592;SDS011;4334;49.982;8.398;2023-08-31T07:20:11;1.77;;;1.58;;
8592;SDS011;4334;49.982;8.398;2023-08-31T07:22:38;3.42;;;1.88;;
8592;SDS011;4334;49.982;8.398;2023-08-31T07:25:08;4.43;;;1.90;;
8592;SDS011;4334;49.982;8.398;2023-08-31T07:27:35;3.30;;;1.83;;
8592;SDS011;4334;49.982;8.398;2023-08-31T07:30:02;2.33;;;1.55;;
8592;SDS011;4334;49.982;8.398;2023-08-31T07:32:30;1.60;;;1.50;;
8592;SDS011;4334;49.982;8.398;2023-08-31T07:34:57;1.88;;;1.67;;
8592;SDS011;4334;49.982;8.398;2023-08-31T07:37:24;2.97;;;1.43;;
8592;SDS011;4334;49.982;8.398;2023-08-31T07:39:51;1.83;;;1.40;;
8592;SDS011;4334;49.982;8.398;2023-08-31T07:42:19;3.38;;;1.70;;
8592;SDS011;4334;49.982;8.398;2023-08-31T07:44:46;3.97;;;1.90;;
8592;SDS011;4334;49.982;8.398;2023-08-31T07:47:13;2.67;;;1.65;;
8592;SDS011;4334;49.982;8.398;2023-08-31T07:49:40;3.70;;;1.85;;
8592;SDS011;4334;49.982;8.398;2023-08-31T07:52:07;3.38;;;1.73;;
8592;SDS011;4334;49.982;8.398;2023-08-31T07:54:34;1.50;;;1.40;;
8592;SDS011;4334;49.982;8.398;2023-08-31T07:57:01;6.55;;;1.70;;
8592;SDS011;4334;49.982;8.398;2023-08-31T07:59:29;3.15;;;1.80;;
8592;SDS011;4334;49.982;8.398;2023-08-31T08:01:55;4.38;;;1.90;;
8592;SDS011;4334;49.982;8.398;2023-08-31T08:04:22;2.83;;;1.70;;
8592;SDS011;4334;49.982;8.398;2023-08-31T08:06:51;1.63;;;1.50;;
8592;SDS011;4334;49.982;8.398;2023-08-31T08:09:17;1.73;;;1.27;;
8592;SDS011;4334;49.982;8.398;2023-08-31T08:11:44;2.22;;;1.55;;
8592;SDS011;4334;49.982;8.398;2023-08-31T08:14:11;1.60;;;1.33;;
8592;SDS011;4334;49.982;8.398;2023-08-31T08:16:39;2.83;;;1.77;;
8592;SDS011;4334;49.982;8.398;2023-08-31T08:19:06;2.67;;;1.55;;
8592;SDS011;4334;49.982;8.398;2023-08-31T08:21:33;2.47;;;1.70;;
8592;SDS011;4334;49.982;8.398;2023-08-31T08:24:00;3.30;;;1.65;;
8592;SDS011;4334;49.982;8.398;2023-08-31T08:26:28;3.17;;;1.65;;
8592;SDS011;4334;49.982;8.398;2023-08-31T08:28:55;3.33;;;1.65;;
8592;SDS011;4334;49.982;8.398;2023-08-31T08:31:21;1.70;;;1.42;;
8592;SDS011;4334;49.982;8.398;2023-08-31T08:33:50;2.22;;;1.50;;
8592;SDS011;4334;49.982;8.398;2023-08-31T08:36:16;1.48;;;1.33;;
8592;SDS011;4334;49.982;8.398;2023-08-31T08:38:43;2.40;;;1.50;;
8592;SDS011;4334;49.982;8.398;2023-08-31T08:41:10;4.20;;;1.73;;
8592;SDS011;4334;49.982;8.398;2023-08-31T08:43:37;2.90;;;1.50;;
8592;SDS011;4334;49.982;8.398;2023-08-31T08:46:09;3.53;;;1.70;;
8592;SDS011;4334;49.982;8.398;2023-08-31T08:48:36;7.20;;;2.78;;
8592;SDS011;4334;49.982;8.398;2023-08-31T08:51:06;2.17;;;1.67;;
8592;SDS011;4334;49.982;8.398;2023-08-31T08:53:34;4.57;;;1.77;;
8592;SDS011;4334;49.982;8.398;2023-08-31T08:56:03;2.13;;;1.63;;
8592;SDS011;4334;49.982;8.398;2023-08-31T08:58:30;3.22;;;1.70;;
8592;SDS011;4334;49.982;8.398;2023-08-31T09:00:57;3.28;;;1.30;;
8592;SDS011;4334;49.982;8.398;2023-08-31T09:03:23;2.85;;;1.60;;
8592;SDS011;4334;49.982;8.398;2023-08-31T09:05:50;3.17;;;1.80;;
8592;SDS011;4334;49.982;8.398;2023-08-31T09:08:24;4.40;;;1.52;;
8592;SDS011;4334;49.982;8.398;2023-08-31T09:10:52;3.25;;;1.50;;
8592;SDS011;4334;49.982;8.398;2023-08-31T09:13:25;2.90;;;1.40;;
8592;SDS011;4334;49.982;8.398;2023-08-31T09:15:53;3.25;;;1.50;;
8592;SDS011;4334;49.982;8.398;2023-08-31T09:18:22;2.65;;;1.48;;
8592;SDS011;4334;49.982;8.398;2023-08-31T09:20:50;2.78;;;1.45;;
8592;SDS011;4334;49.982;8.398;2023-08-31T09:23:19;2.10;;;1.48;;
8592;SDS011;4334;49.982;8.398;2023-08-31T09:25:48;2.00;;;1.48;;
8592;SDS011;4334;49.982;8.398;2023-08-31T09:28:19;2.10;;;1.40;;
8592;SDS011;4334;49.982;8.398;2023-08-31T09:30:47;3.92;;;1.45;;
8592;SDS011;4334;49.982;8.398;2023-08-31T09:33:15;2.15;;;1.23;;
8592;SDS011;4334;49.982;8.398;2023-08-31T09:35:48;1.98;;;1.50;;
8592;SDS011;4334;49.982;8.398;2023-08-31T09:38:17;5.40;;;1.30;;
8592;SDS011;4334;49.982;8.398;2023-08-31T09:40:46;1.77;;;1.30;;
8592;SDS011;4334;49.982;8.398;2023-08-31T09:43:18;1.45;;;1.27;;
8592;SDS011;4334;49.982;8.398;2023-08-31T09:45:46;1.35;;;1.02;;
8592;SDS011;4334;49.982;8.398;2023-08-31T09:48:14;2.25;;;1.50;;
8592;SDS011;4334;49.982;8.398;2023-08-31T09:50:42;2.25;;;1.50;;
8592;SDS011;4334;49.982;8.398;2023-08-31T09:53:10;2.30;;;1.25;;
8592;SDS011;4334;49.982;8.398;2023-08-31T09:55:38;1.73;;;1.17;;
8592;SDS011;4334;49.982;8.398;2023-08-31T09:58:07;2.33;;;1.50;;
8592;SDS011;4334;49.982;8.398;2023-08-31T10:00:35;2.95;;;1.65;;
8592;SDS011;4334;49.982;8.398;2023-08-31T10:03:04;2.30;;;1.38;;
8592;SDS011;4334;49.982;8.398;2023-08-31T10:05:31;2.85;;;1.40;;
8592;SDS011;4334;49.982;8.398;2023-08-31T10:07:58;3.33;;;1.52;;
8592;SDS011;4334;49.982;8.398;2023-08-31T10:10:27;2.90;;;1.55;;
8592;SDS011;4334;49.982;8.398;2023-08-31T10:12:55;1.58;;;1.17;;
8592;SDS011;4334;49.982;8.398;2023-08-31T10:15:26;2.20;;;1.92;;
8592;SDS011;4334;49.982;8.398;2023-08-31T10:17:58;6.38;;;1.33;;
8592;SDS011;4334;49.982;8.398;2023-08-31T10:20:26;3.25;;;1.65;;
8592;SDS011;4334;49.982;8.398;2023-08-31T10:22:56;1.70;;;1.40;;
8592;SDS011;4334;49.982;8.398;2023-08-31T10:25:23;1.73;;;1.38;;
8592;SDS011;4334;49.982;8.398;2023-08-31T10:27:51;11.10;;;1.48;;
8592;SDS011;4334;49.982;8.398;2023-08-31T10:30:27;3.97;;;1.75;;
8592;SDS011;4334;49.982;8.398;2023-08-31T10:35:51;2.42;;;1.30;;
8592;SDS011;4334;49.982;8.398;2023-08-31T10:38:25;1.40;;;1.20;;
8592;SDS011;4334;49.982;8.398;2023-08-31T10:41:03;1.88;;;1.20;;
8592;SDS011;4334;49.982;8.398;2023-08-31T10:43:46;1.73;;;1.42;;
8592;SDS011;4334;49.982;8.398;2023-08-31T10:46:24;1.77;;;1.20;;
8592;SDS011;4334;49.982;8.398;2023-08-31T10:48:53;2.80;;;1.60;;
8592;SDS011;4334;49.982;8.398;2023-08-31T10:51:21;5.22;;;1.60;;
8592;SDS011;4334;49.982;8.398;2023-08-31T10:53:49;2.42;;;1.23;;
8592;SDS011;4334;49.982;8.398;2023-08-31T10:56:16;1.60;;;1.13;;
8592;SDS011;4334;49.982;8.398;2023-08-31T10:58:54;2.10;;;1.20;;
8592;SDS011;4334;49.982;8.398;2023-08-31T11:04:25;5.53;;;1.25;;
8592;SDS011;4334;49.982;8.398;2023-08-31T11:09:39;2.08;;;1.40;;
8592;SDS011;4334;49.982;8.398;2023-08-31T11:12:06;2.53;;;1.00;;
8592;SDS011;4334;49.982;8.398;2023-08-31T11:14:34;3.78;;;1.30;;
8592;SDS011;4334;49.982;8.398;2023-08-31T11:17:02;2.85;;;1.33;;
8592;SDS011;4334;49.982;8.398;2023-08-31T11:19:30;3.53;;;1.90;;
8592;SDS011;4334;49.982;8.398;2023-08-31T11:21:58;4.10;;;1.35;;
8592;SDS011;4334;49.982;8.398;2023-08-31T11:24:26;2.10;;;1.48;;
8592;SDS011;4334;49.982;8.398;2023-08-31T11:26:53;1.95;;;1.10;;
8592;SDS011;4334;49.982;8.398;2023-08-31T11:29:20;3.88;;;1.58;;
8592;SDS011;4334;49.982;8.398;2023-08-31T11:31:47;1.63;;;1.40;;
8592;SDS011;4334;49.982;8.398;2023-08-31T11:34:16;1.88;;;1.50;;
8592;SDS011;4334;49.982;8.398;2023-08-31T11:36:44;1.83;;;1.15;;
8592;SDS011;4334;49.982;8.398;2023-08-31T11:39:12;1.20;;;1.10;;
8592;SDS011;4334;49.982;8.398;2023-08-31T11:41:39;1.92;;;1.52;;
8592;SDS011;4334;49.982;8.398;2023-08-31T11:44:08;1.38;;;1.15;;
8592;SDS011;4334;49.982;8.398;2023-08-31T11:46:36;1.27;;;1.05;;
8592;SDS011;4334;49.982;8.398;2023-08-31T11:49:03;2.40;;;1.40;;
8592;SDS011;4334;49.982;8.398;2023-08-31T11:51:32;2.08;;;1.50;;
8592;SDS011;4334;49.982;8.398;2023-08-31T11:54:00;4.40;;;1.20;;
8592;SDS011;4334;49.982;8.398;2023-08-31T11:56:38;1.52;;;1.30;;
8592;SDS011;4334;49.982;8.398;2023-08-31T11:59:07;1.77;;;1.30;;
8592;SDS011;4334;49.982;8.398;2023-08-31T12:01:38;1.75;;;1.38;;
8592;SDS011;4334;49.982;8.398;2023-08-31T12:04:09;1.80;;;1.15;;
8592;SDS011;4334;49.982;8.398;2023-08-31T12:06:39;3.83;;;1.35;;
8592;SDS011;4334;49.982;8.398;2023-08-31T12:09:07;1.13;;;1.00;;
8592;SDS011;4334;49.982;8.398;2023-08-31T12:11:34;1.33;;;1.15;;
8592;SDS011;4334;49.982;8.398;2023-08-31T12:14:01;2.58;;;1.30;;
8592;SDS011;4334;49.982;8.398;2023-08-31T12:16:32;1.50;;;1.33;;
8592;SDS011;4334;49.982;8.398;2023-08-31T12:19:01;1.50;;;1.30;;
8592;SDS011;4334;49.982;8.398;2023-08-31T12:21:29;1.77;;;1.40;;
8592;SDS011;4334;49.982;8.398;2023-08-31T12:23:58;2.10;;;1.40;;
8592;SDS011;4334;49.982;8.398;2023-08-31T12:26:25;2.72;;;1.60;;
8592;SDS011;4334;49.982;8.398;2023-08-31T12:28:52;2.30;;;1.50;;
8592;SDS011;4334;49.982;8.398;2023-08-31T12:31:19;2.10;;;1.20;;
8592;SDS011;4334;49.982;8.398;2023-08-31T12:33:48;1.30;;;1.20;;
8592;SDS011;4334;49.982;8.398;2023-08-31T12:36:15;3.80;;;1.50;;
8592;SDS011;4334;49.982;8.398;2023-08-31T12:38:42;2.38;;;1.60;;
8592;SDS011;4334;49.982;8.398;2023-08-31T12:41:10;2.05;;;1.50;;
8592;SDS011;4334;49.982;8.398;2023-08-31T12:43:37;2.17;;;1.20;;
8592;SDS011;4334;49.982;8.398;2023-08-31T12:46:04;2.03;;;1.52;;
8592;SDS011;4334;49.982;8.398;2023-08-31T12:48:31;4.28;;;1.35;;
8592;SDS011;4334;49.982;8.398;2023-08-31T12:50:59;3.17;;;1.40;;
8592;SDS011;4334;49.982;8.398;2023-08-31T12:53:25;3.15;;;1.50;;
8592;SDS011;4334;49.982;8.398;2023-08-31T12:55:52;1.63;;;1.27;;
8592;SDS011;4334;49.982;8.398;2023-08-31T12:58:21;2.25;;;1.30;;
8592;SDS011;4334;49.982;8.398;2023-08-31T13:00:47;2.22;;;1.17;;
8592;SDS011;4334;49.982;8.398;2023-08-31T13:03:15;1.48;;;1.15;;
8592;SDS011;4334;49.982;8.398;2023-08-31T13:05:42;3.28;;;1.35;;
8592;SDS011;4334;49.982;8.398;2023-08-31T13:08:09;5.85;;;1.58;;
8592;SDS011;4334;49.982;8.398;2023-08-31T13:10:36;1.58;;;1.20;;
8592;SDS011;4334;49.982;8.398;2023-08-31T13:13:03;1.60;;;1.30;;
8592;SDS011;4334;49.982;8.398;2023-08-31T13:15:32;3.20;;;1.45;;
8592;SDS011;4334;49.982;8.398;2023-08-31T13:17:59;1.95;;;1.40;;
8592;SDS011;4334;49.982;8.398;2023-08-31T13:20:26;5.05;;;1.38;;
8592;SDS011;4334;49.982;8.398;2023-08-31T13:22:53;4.45;;;1.25;;
8592;SDS011;4334;49.982;8.398;2023-08-31T13:25:20;3.80;;;1.40;;
8592;SDS011;4334;49.982;8.398;2023-08-31T13:27:46;1.58;;;1.25;;
8592;SDS011;4334;49.982;8.398;2023-08-31T13:30:13;3.95;;;1.40;;
8592;SDS011;4334;49.982;8.398;2023-08-31T13:32:42;3.85;;;1.50;;
8592;SDS011;4334;49.982;8.398;2023-08-31T13:35:09;2.13;;;1.25;;
8592;SDS011;4334;49.982;8.398;2023-08-31T13:37:36;5.38;;;1.58;;
8592;SDS011;4334;49.982;8.398;2023-08-31T13:40:04;2.00;;;1.30;;
8592;SDS011;4334;49.982;8.398;2023-08-31T13:42:34;2.08;;;1.45;;
8592;SDS011;4334;49.982;8.398;2023-08-31T13:45:04;4.32;;;1.60;;
8592;SDS011;4334;49.982;8.398;2023-08-31T13:47:32;2.55;;;1.80;;
8592;SDS011;4334;49.982;8.398;2023-08-31T13:50:01;1.92;;;1.40;;
8592;SDS011;4334;49.982;8.398;2023-08-31T13:52:29;3.28;;;1.42;;
8592;SDS011;4334;49.982;8.398;2023-08-31T13:54:56;7.50;;;1.60;;
8592;SDS011;4334;49.982;8.398;2023-08-31T13:57:23;1.65;;;1.30;;
8592;SDS011;4334;49.982;8.398;2023-08-31T13:59:50;2.95;;;1.67;;
8592;SDS011;4334;49.982;8.398;2023-08-31T14:02:17;3.47;;;1.48;;
8592;SDS011;4334;49.982;8.398;2023-08-31T14:04:45;3.13;;;1.33;;
8592;SDS011;4334;49.982;8.398;2023-08-31T14:07:13;2.30;;;1.33;;
8592;SDS011;4334;49.982;8.398;2023-08-31T14:09:40;3.15;;;1.40;;
8592;SDS011;4334;49.982;8.398;2023-08-31T14:12:07;2.92;;;1.40;;
8592;SDS011;4334;49.982;8.398;2023-08-31T14:14:34;3.55;;;1.50;;
8592;SDS011;4334;49.982;8.398;2023-08-31T14:17:01;3.53;;;1.63;;
8592;SDS011;4334;49.982;8.398;2023-08-31T14:19:28;6.82;;;1.70;;
8592;SDS011;4334;49.982;8.398;2023-08-31T14:21:55;3.00;;;1.30;;
8592;SDS011;4334;49.982;8.398;2023-08-31T14:24:23;4.00;;;1.55;;
8592;SDS011;4334;49.982;8.398;2023-08-31T14:26:50;3.13;;;1.60;;
8592;SDS011;4334;49.982;8.398;2023-08-31T14:29:17;1.85;;;1.25;;
8592;SDS011;4334;49.982;8.398;2023-08-31T14:31:44;2.97;;;1.25;;
8592;SDS011;4334;49.982;8.398;2023-08-31T14:34:11;3.78;;;1.58;;
8592;SDS011;4334;49.982;8.398;2023-08-31T14:36:38;2.47;;;1.42;;
8592;SDS011;4334;49.982;8.398;2023-08-31T14:39:05;6.68;;;1.48;;
8592;SDS011;4334;49.982;8.398;2023-08-31T14:41:33;1.73;;;1.33;;
8592;SDS011;4334;49.982;8.398;2023-08-31T14:44:00;2.40;;;1.55;;
8592;SDS011;4334;49.982;8.398;2023-08-31T14:46:26;1.70;;;1.10;;
8592;SDS011;4334;49.982;8.398;2023-08-31T14:48:53;1.45;;;1.10;;
8592;SDS011;4334;49.982;8.398;2023-08-31T14:51:20;2.13;;;1.42;;
8592;SDS011;4334;49.982;8.398;2023-08-31T14:53:47;2.72;;;1.50;;
8592;SDS011;4334;49.982;8.398;2023-08-31T14:56:14;1.88;;;1.45;;
8592;SDS011;4334;49.982;8.398;2023-08-31T14:58:42;2.90;;;1.60;;
8592;SDS011;4334;49.982;8.398;2023-08-31T15:01:10;1.90;;;1.45;;
8592;SDS011;4334;49.982;8.398;2023-08-31T15:03:37;2.90;;;1.35;;
8592;SDS011;4334;49.982;8.398;2023-08-31T15:06:04;2.53;;;1.65;;
8592;SDS011;4334;49.982;8.398;2023-08-31T15:08:35;6.32;;;1.98;;
8592;SDS011;4334;49.982;8.398;2023-08-31T15:11:02;2.80;;;1.60;;
8592;SDS011;4334;49.982;8.398;2023-08-31T15:13:29;3.97;;;1.83;;
8592;SDS011;4334;49.982;8.398;2023-08-31T15:15:58;2.63;;;1.70;;
8592;SDS011;4334;49.982;8.398;2023-08-31T15:18:25;4.60;;;1.70;;
8592;SDS011;4334;49.982;8.398;2023-08-31T15:20:52;3.63;;;1.92;;
8592;SDS011;4334;49.982;8.398;2023-08-31T15:23:19;5.00;;;1.70;;
8592;SDS011;4334;49.982;8.398;2023-08-31T15:25:46;3.75;;;1.63;;
8592;SDS011;4334;49.982;8.398;2023-08-31T15:28:13;3.65;;;1.80;;